Latest Weather Observations for Port Macquarie Airport

IDN60801

Issued at 10:05 pm EST Thursday 24 July 2014 (issued every 30 minutes, with the page automatically refreshed every 10 minutes)

About weather observations | Map of weather stations | Latest weather observations for NSW | Other Formats
Station Details ID: 060139 Name: PORT MACQUARIE AIRPORT AWS Lat: -31.43 Lon: 152.87 Height: 4.2 m
Data from the previous 72 hours. | See also: Recent months at Port Macquarie Airport
Date/Time
EST
Temp
°C
App
Temp
°C
Dew
Point
Rel
Hum
%
Delta-T
°C
Wind Press
QNH
hPa
Press
MSL
hPa
Rain
since 9 am
mm
Dir
 
Spd
km/h
Gust
km/h
Spd
kts
Gust
kts
24/10:00pm 9.9 8.4 9.1 95 0.4 NNW 7 9 4 5 1022.4 1022.4 0.0
24/09:30pm 9.5 9.1 8.4 93 0.5 NNE 0 0 0 0 1022.5 - 0.0
24/09:00pm 10.3 10.1 9.2 93 0.5 CALM 0 0 0 0 1022.4 1022.4 0.0
24/08:30pm 10.2 10.0 9.0 92 0.6 CALM 0 0 0 0 1022.4 - 0.0
24/08:00pm 10.3 10.0 8.7 90 0.8 CALM 0 0 0 0 1022.3 1022.3 0.0
24/07:30pm 11.1 11.0 9.4 89 0.9 CALM 0 0 0 0 1022.1 - 0.0
24/07:00pm 12.0 12.1 10.2 89 0.9 CALM 0 0 0 0 1022.1 1022.1 0.0
24/06:30pm 12.7 11.7 10.4 86 1.2 N 6 7 3 4 1021.8 - 0.0
24/06:00pm 14.1 13.1 10.3 78 2.0 N 6 7 3 4 1021.8 1021.8 0.0
24/05:30pm 15.4 14.2 9.7 69 3.0 NNE 6 9 3 5 1021.4 - 0.0
24/05:00pm 16.7 14.9 9.6 63 3.7 NNE 9 13 5 7 1021.2 1021.2 0.0
24/04:30pm 17.4 15.6 11.0 66 3.4 NNE 11 11 6 6 1020.9 - 0.0
24/04:00pm 17.8 17.0 11.1 65 3.6 N 6 7 3 4 1020.8 1020.8 0.0
24/03:30pm 18.0 16.1 10.4 61 4.1 N 11 15 6 8 1020.7 - 0.0
24/03:00pm 19.5 18.4 12.0 62 4.2 NNE 9 13 5 7 1020.4 1020.4 0.0
24/02:30pm 18.5 16.8 12.5 68 3.3 NNE 13 17 7 9 1020.6 - 0.0
24/02:00pm 18.2 15.6 10.6 61 4.1 N 15 20 8 11 1020.9 1020.9 0.0
24/01:30pm 18.0 16.2 10.9 63 3.8 N 11 17 6 9 1021.1 - 0.0
24/01:00pm 18.1 14.8 9.7 58 4.4 N 17 22 9 12 1021.5 1021.5 0.0
24/12:30pm 18.3 14.6 10.2 59 4.3 N 20 26 11 14 1021.8 - 0.0
24/12:00pm 17.6 14.9 10.5 63 3.8 NE 15 19 8 10 1022.2 1022.2 0.0
24/11:30am 16.2 15.4 11.6 74 2.5 N 7 11 4 6 1022.7 - 0.0
24/11:00am 14.7 13.8 11.5 81 1.7 NW 7 11 4 6 1023.6 1023.6 0.0
24/10:30am 13.3 12.2 10.7 84 1.4 NNW 7 11 4 6 1023.8 - 0.0
24/10:00am 12.2 11.0 10.3 88 1.0 NW 7 7 4 4 1023.7 1023.7 0.0
24/09:30am 11.2 9.8 9.6 90 0.8 NW 7 11 4 6 1023.6 - 0.0
24/09:00am 10.8 9.4 9.6 92 0.6 NW 7 11 4 6 1023.3 1023.3 0.0
24/08:30am 10.6 10.1 9.4 92 0.6 NNW 2 7 1 4 1022.8 - 0.0
24/08:00am 9.3 7.9 8.7 96 0.3 NNW 6 7 3 4 1022.6 1022.6 0.0
24/07:30am 8.1 6.4 7.5 96 0.3 N 6 7 3 4 1022.6 - 0.0
24/07:00am 8.1 7.5 7.5 96 0.3 CALM 0 0 0 0 1022.7 1022.7 0.0
24/06:30am 7.5 5.6 6.9 96 0.3 WNW 6 7 3 4 1022.5 - 0.0
24/06:00am 7.8 7.2 7.4 97 0.2 NW 0 0 0 0 1021.9 1021.9 0.0
24/05:30am 7.9 6.9 7.5 97 0.2 NW 2 6 1 3 1021.4 - 0.0
24/05:00am 6.6 4.5 6.0 96 0.3 NNW 6 7 3 4 1021.5 1021.5 0.0
24/04:56am 6.6 4.5 6.0 96 0.3 NNW 6 7 3 4 1021.6 - 0.0
24/04:31am 6.4 5.4 5.7 95 0.3 CALM 0 0 0 0 1021.5 - 0.0
24/04:30am 6.5 5.6 5.9 96 0.3 CALM 0 2 0 1 1021.5 - 0.0
24/04:00am 7.4 5.3 6.7 95 0.3 NW 7 9 4 5 1021.6 1021.6 0.0
24/03:30am 8.2 6.5 7.6 96 0.3 NNW 6 7 3 4 1021.4 - 0.0
24/03:00am 8.0 6.3 7.4 96 0.3 NW 6 7 3 4 1021.6 1021.6 0.0
24/02:30am 8.8 7.3 8.4 97 0.2 NNW 6 7 3 4 1021.9 - 0.0
24/02:00am 8.8 8.4 8.4 97 0.2 CALM 0 4 0 2 1022.1 1022.1 0.0
24/01:30am 8.5 8.1 8.1 97 0.2 CALM 0 6 0 3 1022.1 - 0.0
24/01:25am 8.1 7.2 7.7 97 0.2 W 2 6 1 3 1022.1 - 0.0
24/01:11am 6.6 4.5 6.0 96 0.3 WNW 6 9 3 5 1022.1 - 0.0
24/01:00am 7.3 6.6 6.9 97 0.2 CALM 0 0 0 0 1022.1 1022.1 0.0
24/12:30am 6.2 4.4 5.5 95 0.3 WNW 4 6 2 3 1022.4 - 0.0
24/12:11am 7.1 6.3 6.7 97 0.2 CALM 0 0 0 0 1022.3 - 0.0
24/12:00am 7.7 5.9 7.1 96 0.3 NW 6 7 3 4 1022.5 1022.5 0.0
 
Date/Time
EST
Temp
°C
App
Temp
°C
Dew
Point
Rel
Hum
%
Delta-T
°C
Wind Press
QNH
hPa
Press
MSL
hPa
Rain
since 9 am
mm
Dir
 
Spd
km/h
Gust
km/h
Spd
kts
Gust
kts
23/11:30pm 7.1 6.3 6.5 96 0.3 CALM 0 0 0 0 1022.6 - 0.0
23/11:00pm 7.1 6.3 6.4 95 0.3 CALM 0 0 0 0 1022.8 1022.8 0.0
23/10:30pm 7.9 7.2 7.1 95 0.4 CALM 0 0 0 0 1023.1 - 0.0
23/10:18pm 7.8 7.2 7.2 96 0.3 CALM 0 0 0 0 1023.0 - 0.0
23/10:00pm 8.9 8.6 8.5 97 0.2 CALM 0 0 0 0 1023.2 1023.2 0.0
23/09:30pm 8.2 7.6 7.4 95 0.4 CALM 0 0 0 0 1023.3 - 0.0
23/09:25pm 8.0 7.4 7.2 95 0.4 CALM 0 0 0 0 1023.4 - 0.0
23/09:00pm 8.7 7.5 7.9 95 0.4 W 4 7 2 4 1023.4 1023.4 0.0
23/08:46pm 8.4 7.8 7.5 94 0.4 CALM 0 0 0 0 1023.3 - 0.0
23/08:30pm 9.2 8.1 8.4 95 0.4 WNW 4 7 2 4 1023.1 - 0.0
23/08:22pm 9.6 8.0 8.8 95 0.4 WNW 7 9 4 5 1023.1 - 0.0
23/08:00pm 9.1 8.6 8.0 93 0.5 CALM 0 0 0 0 1023.0 1023.0 0.0
23/07:58pm 9.2 8.8 8.1 93 0.5 CALM 0 0 0 0 1023.0 - 0.0
23/07:30pm 10.0 9.8 9.1 94 0.4 CALM 0 0 0 0 1022.9 - 0.0
23/07:00pm 10.2 9.9 8.8 91 0.7 CALM 0 0 0 0 1022.7 1022.7 0.0
23/06:30pm 11.1 11.1 9.9 92 0.6 CALM 0 0 0 0 1022.6 - 0.0
23/06:00pm 11.7 11.7 9.8 88 1.0 CALM 0 0 0 0 1022.5 1022.5 0.0
23/05:30pm 13.8 13.6 10.6 81 1.7 S 2 6 1 3 1022.1 - 0.0
23/05:00pm 15.6 14.7 10.8 73 2.5 SSE 6 9 3 5 1021.8 1021.8 0.0
23/04:30pm 16.3 15.2 9.9 66 3.4 SSE 6 11 3 6 1021.6 - 0.0
23/04:00pm 16.8 14.2 9.2 61 3.9 SSE 13 17 7 9 1021.5 1021.5 0.0
23/03:30pm 17.0 14.0 10.8 67 3.3 SE 17 20 9 11 1021.4 - 0.0
23/03:00pm 16.9 13.4 11.0 68 3.2 SE 20 26 11 14 1021.4 1021.4 0.0
23/02:30pm 17.2 13.9 11.5 69 3.1 SE 20 32 11 17 1021.6 - 0.0
23/02:00pm 18.1 14.7 9.2 56 4.6 SSE 17 24 9 13 1021.4 1021.4 0.0
23/01:30pm 17.9 14.7 10.0 60 4.2 S 17 22 9 12 1021.7 - 0.0
23/01:00pm 18.2 15.5 10.3 60 4.2 S 15 20 8 11 1022.0 1022.0 0.0
23/12:30pm 18.1 16.0 11.0 63 3.8 S 13 20 7 11 1022.5 - 0.0
23/12:00pm 17.3 14.9 10.2 63 3.7 SSW 13 22 7 12 1022.9 1022.9 0.0
23/11:30am 16.7 14.2 11.0 69 3.1 S 15 19 8 10 1023.6 - 0.0
23/11:00am 17.0 15.2 10.8 67 3.3 SW 11 17 6 9 1024.1 1024.1 0.0
23/10:30am 16.2 14.0 10.7 70 2.9 WSW 13 17 7 9 1024.4 - 0.0
23/10:00am 14.9 12.5 9.9 72 2.6 W 13 17 7 9 1024.6 1024.6 0.0
23/09:30am 13.8 10.9 9.6 76 2.2 WNW 15 19 8 10 1024.5 - 0.0
23/09:00am 12.8 11.0 9.3 79 1.8 W 9 15 5 8 1024.2 1024.2 9.6
23/08:30am 11.8 9.9 9.2 84 1.3 W 9 17 5 9 1024.0 - 9.6
23/08:00am 10.5 7.6 8.1 85 1.2 W 13 19 7 10 1023.9 1023.9 9.6
23/07:30am 9.7 5.9 7.6 87 1.0 W 17 20 9 11 1023.7 - 9.6
23/07:00am 9.0 6.3 7.5 90 0.7 W 11 15 6 8 1023.3 1023.3 9.6
23/06:30am 9.2 5.4 7.6 90 0.8 W 17 22 9 12 1023.2 - 9.6
23/06:00am 9.2 5.1 7.8 91 0.7 W 19 24 10 13 1022.8 1022.8 9.6
23/05:30am 8.5 6.2 7.6 94 0.4 W 9 13 5 7 1022.6 - 9.6
23/05:00am 8.3 7.3 7.5 95 0.4 WNW 2 9 1 5 1022.7 1022.7 9.6
23/04:30am 7.9 7.1 6.7 92 0.6 CALM 0 9 0 5 1022.2 - 9.6
23/04:00am 9.1 7.9 7.9 92 0.6 W 4 6 2 3 1022.2 1022.2 9.6
23/03:30am 9.4 6.9 8.2 92 0.6 W 11 15 6 8 1022.2 - 9.6
23/03:00am 9.5 7.0 8.3 92 0.6 W 11 15 6 8 1022.2 1022.2 9.6
23/02:30am 9.9 7.5 8.7 92 0.6 W 11 15 6 8 1022.4 - 9.6
23/02:00am 10.3 7.3 9.1 92 0.6 W 15 22 8 12 1022.4 1022.4 9.6
23/01:30am 10.2 7.1 9.0 92 0.6 W 15 20 8 11 1022.6 - 9.4
23/01:00am 10.2 7.2 9.1 93 0.5 W 15 24 8 13 1022.5 1022.5 9.4
23/12:30am 10.2 7.6 9.3 94 0.4 W 13 19 7 10 1022.5 - 9.4
23/12:00am 10.3 7.3 9.4 94 0.4 W 15 19 8 10 1022.6 1022.6 9.4
 
Date/Time
EST
Temp
°C
App
Temp
°C
Dew
Point
Rel
Hum
%
Delta-T
°C
Wind Press
QNH
hPa
Press
MSL
hPa
Rain
since 9 am
mm
Dir
 
Spd
km/h
Gust
km/h
Spd
kts
Gust
kts
22/11:30pm 10.7 8.2 9.8 94 0.5 W 13 17 7 9 1022.7 - 9.4
22/11:00pm 10.3 7.4 9.8 97 0.3 W 15 20 8 11 1022.8 1022.8 9.4
22/10:40pm 9.0 7.3 8.5 97 0.2 WSW 7 11 4 6 1022.9 - 9.4
22/10:30pm 9.3 8.3 8.7 96 0.3 W 4 11 2 6 1022.9 - 9.4
22/10:00pm 8.8 7.9 7.7 93 0.5 SSW 2 6 1 3 1023.2 1023.2 9.4
22/09:54pm 8.6 7.7 7.7 94 0.4 SSW 2 6 1 3 1023.2 - 9.4
22/09:30pm 9.3 7.5 8.1 92 0.6 S 7 9 4 5 1023.5 - 9.4
22/09:00pm 11.1 8.7 10.2 94 0.5 W 13 17 7 9 1023.3 1023.3 9.4
22/08:30pm 10.9 9.3 10.1 95 0.4 W 9 15 5 8 1023.3 - 9.4
22/08:00pm 10.7 9.9 9.6 93 0.5 WSW 4 7 2 4 1023.3 1023.3 9.4
22/07:30pm 11.3 9.7 10.2 93 0.6 W 9 13 5 7 1023.0 - 9.4
22/07:00pm 11.3 9.7 10.2 93 0.6 W 9 13 5 7 1022.8 1022.8 9.4
22/06:30pm 11.3 9.7 10.2 93 0.6 W 9 15 5 8 1022.7 - 9.4
22/06:00pm 11.4 9.8 10.3 93 0.6 WSW 9 11 5 6 1022.6 1022.6 9.4
22/05:30pm 12.2 11.2 11.1 93 0.6 W 7 11 4 6 1022.2 - 9.2
22/05:00pm 12.9 11.8 11.8 93 0.6 W 9 15 5 8 1022.1 1022.1 9.2
22/04:30pm 13.6 12.1 11.8 89 1.0 SSW 11 20 6 11 1022.0 - 8.6
22/04:05pm 14.6 13.8 13.0 90 0.9 N 9 13 5 7 1021.7 - 3.2
22/04:00pm 14.6 13.4 12.8 89 1.0 N 11 13 6 7 1021.5 1021.5 1.4
22/03:30pm 14.1 13.1 12.3 89 1.0 N 9 11 5 6 1021.3 - 1.2
22/03:00pm 15.0 14.5 12.1 83 1.6 N 6 13 3 7 1021.3 1021.3 0.8
22/02:30pm 15.1 14.2 12.6 85 1.4 N 9 13 5 7 1020.8 - 0.0
22/02:00pm 15.9 14.8 11.9 77 2.2 NNE 9 13 5 7 1020.8 1020.8 0.0
22/01:30pm 16.0 15.3 12.0 77 2.2 S 7 9 4 5 1021.0 - 0.0
22/01:00pm 15.7 14.5 11.5 76 2.3 SSW 9 15 5 8 1021.0 1021.0 0.0
22/12:30pm 17.2 16.3 11.5 69 3.1 S 7 13 4 7 1021.2 - 0.0
22/12:00pm 16.2 14.8 10.9 71 2.8 SW 9 11 5 6 1021.9 1021.9 0.0
22/11:30am 15.8 14.5 11.2 74 2.5 SSW 9 13 5 7 1022.5 - 0.0
22/11:00am 15.9 14.3 11.5 75 2.4 WSW 11 15 6 8 1022.9 1022.9 0.0
22/10:30am 15.8 14.9 12.7 82 1.7 W 9 13 5 7 1022.9 - 0.0
22/10:00am 14.4 13.1 11.4 82 1.6 W 9 13 5 7 1023.3 1023.3 0.0
22/09:30am 13.7 12.5 11.7 88 1.1 WNW 9 13 5 7 1023.5 - 0.0
22/09:00am 13.0 12.1 11.4 90 0.8 W 7 9 4 5 1023.4 1023.4 1.0
22/08:30am 12.4 11.1 11.1 92 0.7 W 9 13 5 7 1023.3 - 1.0
22/08:00am 11.5 11.5 11.0 97 0.3 WSW 2 7 1 4 1023.0 1023.0 1.0
22/07:30am 9.8 9.6 9.2 96 0.3 CALM 0 0 0 0 1022.9 - 1.0
22/07:00am 8.8 8.3 8.0 95 0.4 CALM 0 0 0 0 1022.9 1022.9 1.0
22/06:30am 9.4 7.8 8.6 95 0.4 WNW 7 9 4 5 1022.4 - 1.0
22/06:00am 10.6 10.2 9.8 95 0.4 SSW 2 6 1 3 1022.2 1022.2 1.0
22/05:30am 10.9 9.8 10.0 94 0.5 SSW 6 7 3 4 1021.9 - 1.0
22/05:00am 11.2 10.5 9.9 92 0.7 W 4 6 2 3 1021.6 1021.6 1.0
22/04:30am 11.8 11.6 10.5 92 0.7 WNW 2 6 1 3 1021.6 - 0.8
22/04:00am 12.2 10.8 10.8 91 0.7 W 9 13 5 7 1021.8 1021.8 0.8
22/03:30am 12.0 10.5 10.6 91 0.7 W 9 11 5 6 1021.7 - 0.8
22/03:00am 11.9 10.0 10.5 91 0.7 W 11 13 6 7 1021.6 1021.6 0.8
22/02:30am 11.8 10.3 10.7 93 0.6 WNW 9 15 5 8 1021.8 - 0.8
22/02:00am 11.6 10.1 10.5 93 0.6 W 9 11 5 6 1021.9 1021.9 0.8
22/01:30am 11.2 10.1 10.6 96 0.3 WNW 7 9 4 5 1022.3 - 0.8
22/01:00am 10.5 9.4 9.9 96 0.3 WSW 6 7 3 4 1022.5 1022.5 0.8
22/12:30am 10.6 9.9 10.0 96 0.3 SSW 4 7 2 4 1022.7 - 0.8
22/12:00am 10.6 10.6 9.8 95 0.4 CALM 0 0 0 0 1022.7 1022.7 0.8
 
Date/Time
EST
Temp
°C
App
Temp
°C
Dew
Point
Rel
Hum
%
Delta-T
°C
Wind Press
QNH
hPa
Press
MSL
hPa
Rain
since 9 am
mm
Dir
 
Spd
km/h
Gust
km/h
Spd
kts
Gust
kts
21/11:30pm 10.8 9.5 9.9 94 0.5 WSW 7 7 4 4 1022.9 - 0.8
21/11:00pm 12.0 12.4 11.4 96 0.3 CALM 0 0 0 0 1023.1 1023.1 0.8
21/10:30pm 12.0 12.4 11.2 95 0.4 CALM 0 6 0 3 1023.4 - 0.8

Other Formats:

Comma delimited format used in spreadsheet applications
http://www.bom.gov.au/fwo/IDN60801/IDN60801.94786.axf

JavaScript Object Notation format (JSON) in row-major order
http://www.bom.gov.au/fwo/IDN60801/IDN60801.94786.json